Latest Coastal Weather Observations for Rhyll

IDV60701

Issued at 11:41 pm EDT Monday 16 January 2017 (issued every 10 minutes, with the page automatically refreshed every 10 minutes)

About coastal observations | Map of coastal stations | Coastal observations for VIC | Marine services | Other Formats
Station Details ID: 086373 Name: RHYLL Lat: -38.46 Lon: 145.31 Height: 13.4 m
Data from the previous 72 hours. | See also: Recent months at Rhyll
Date/Time
EDT
Temp
°C
Wind Pressure Rain since
9am
mm
Weather Cloud Vis
km
Sea
Height
m
Swell
Dir  Spd
kts
Gust
kts
hPa Trend Height
m
Period
s
Dir
16/11:30pm 20.5 SE 4 6 1009.5 - 0.0 - - - - - - -
16/11:00pm 19.8 S 4 6 1010.2 - 0.0 - - - - - - -
16/10:30pm 20.3 SSW 7 10 1010.7 - 0.0 - - - - - - -
16/10:00pm 21.3 SW 4 5 1010.5 - 0.0 - - - - - - -
16/09:30pm 21.7 SSW 4 5 1010.5 - 0.0 - - - - - - -
16/09:00pm 21.8 SE 2 3 1010.2 - 0.0 - - - - - - -
16/08:30pm 22.2 SSW 3 4 1010.3 - 0.0 - - - - - - -
16/08:00pm 23.2 S 1 1 1010.2 - 0.0 - - - - - - -
16/07:30pm 23.4 SSW 3 5 1010.4 - 0.0 - - - - - - -
16/07:00pm 22.6 S 4 6 1010.7 - 0.0 - - - - - - -
16/06:30pm 23.5 S 4 5 1010.4 - 0.0 - - - - - - -
16/06:00pm 24.7 S 4 6 1010.8 - 0.0 - - - - - - -
16/05:30pm 23.4 SSE 4 7 1010.8 - 0.0 - - - - - - -
16/05:00pm 23.4 SSE 6 7 1011.2 - 0.0 - - - - - - -
16/04:30pm 23.4 SSE 6 7 1011.6 - 0.0 - - - - - - -
16/04:00pm 23.4 SSE 6 7 1012.1 - 0.0 - - - - - - -
16/03:30pm 23.1 S 4 7 1012.5 - 0.0 - - - - - - -
16/03:00pm 22.5 S 4 8 1013.0 - 0.0 - - - - - - -
16/02:30pm 22.9 S 4 5 1013.4 - 0.0 - - - - - - -
16/02:00pm 22.6 S 4 6 1013.8 - 0.0 - - - - - - -
16/01:30pm 24.5 ENE 4 5 1014.2 - 0.0 - - - - - - -
16/01:00pm 23.5 ENE 5 6 1014.5 - 0.0 - - - - - - -
16/12:30pm 23.3 E 5 6 1014.8 - 0.0 - - - - - - -
16/12:00pm 22.6 ENE 3 6 1014.8 - 0.0 - - - - - - -
16/11:30am 21.4 NE 8 9 1014.9 - 0.0 - - - - - - -
16/11:00am 21.5 NE 9 11 1015.3 - 0.0 - - - - - - -
16/10:30am 19.9 NNE 3 4 1015.9 - 0.0 - - - - - - -
16/10:00am 18.9 NNE 3 5 1015.8 - 0.0 - - - - - - -
16/09:30am 16.9 N 3 5 1016.2 - 0.0 - - - - - - -
16/09:00am 17.1 N 5 7 1016.1 - 0.0 - - - - - - -
16/08:30am 16.3 N 4 7 1016.2 - 0.0 - - - - - - -
16/08:00am 15.9 N 5 7 1016.3 - 0.0 - - - - - - -
16/07:30am 15.2 N 6 9 1016.1 - 0.0 - - - - - - -
16/07:00am 15.0 N 5 9 1016.1 - 0.0 - - - - - - -
16/06:30am 14.7 NNE 5 8 1015.8 - 0.0 - - - - - - -
16/06:00am 14.6 N 5 9 1015.7 - 0.0 - - - - - - -
16/05:30am 14.4 N 8 11 1015.6 - 0.0 - - - - - - -
16/05:00am 14.5 N 8 10 1015.5 - 0.0 - - - - - - -
16/04:30am 15.2 WSW 1 1 1015.3 - 0.0 - - - - - - -
16/04:00am 15.1 WNW 1 2 1015.1 - 0.0 - - - - - - -
16/03:30am 15.3 WNW 1 1 1015.1 - 0.0 - - - - - - -
16/03:00am 15.5 W 1 2 1015.5 - 0.0 - - - - - - -
16/02:30am 15.3 CALM 0 0 1015.6 - 0.0 - - - - - - -
16/02:00am 15.2 CALM 0 0 1016.2 - 0.0 - - - - - - -
16/01:30am 15.4 SW 1 1 1016.5 - 0.0 - - - - - - -
16/01:00am 15.2 WSW 1 3 1016.8 - 0.0 - - - - - - -
16/12:30am 15.3 WSW 1 2 1017.1 - 0.0 - - - - - - -
16/12:00am 15.3 WSW 1 2 1017.3 - 0.0 - - - - - - -
 
Date/Time
EDT
Temp
°C
Wind Pressure Rain since
9am
mm
Weather Cloud Vis
km
Sea
Height
m
Swell
Dir  Spd
kts
Gust
kts
hPa Trend Height
m
Period
s
Dir
15/11:30pm 15.0 WSW 2 2 1017.5 - 0.0 - - - - - - -
15/11:00pm 14.6 WSW 2 3 1017.5 - 0.0 - - - - - - -
15/10:30pm 14.9 SW 2 3 1017.7 - 0.0 - - - - - - -
15/10:00pm 15.0 WSW 2 2 1018.0 - 0.0 - - - - - - -
15/09:30pm 15.1 SW 1 2 1017.9 - 0.0 - - - - - - -
15/09:00pm 15.3 SW 2 3 1017.9 - 0.0 - - - - - - -
15/08:30pm 15.8 SSW 3 5 1017.8 - 0.0 - - - - - - -
15/08:00pm 16.5 S 4 8 1017.7 - 0.0 - - - - - - -
15/07:30pm 16.8 S 4 9 1017.7 - 0.0 - - - - - - -
15/07:00pm 18.0 SSW 4 9 1017.9 - 0.0 - - - - - - -
15/06:30pm 17.5 SSW 6 10 1017.8 - 0.0 - - - - - - -
15/06:00pm 19.0 S 6 13 1017.8 - 0.0 - - - - - - -
15/05:30pm 19.5 SSW 6 11 1017.9 - 0.0 - - - - - - -
15/05:00pm 19.4 S 6 11 1018.2 - 0.0 - - - - - - -
15/04:30pm 19.0 S 7 12 1018.3 - 0.0 - - - - - - -
15/04:00pm 19.6 SW 8 13 1018.3 - 0.0 - - - - - - -
15/03:30pm 18.6 SW 8 14 1018.5 - 0.0 - - - - - - -
15/03:00pm 18.0 SW 8 12 1018.9 - 0.0 - - - - - - -
15/02:30pm 18.1 SW 7 11 1018.8 - 0.0 - - - - - - -
15/02:00pm 18.1 SW 6 12 1018.9 - 0.0 - - - - - - -
15/01:30pm 17.5 WSW 6 12 1019.1 - 0.0 - - - - - - -
15/01:00pm 17.4 WSW 6 12 1019.1 - 0.0 - - - - - - -
15/12:30pm 17.5 SW 6 12 1018.9 - 0.0 - - - - - - -
15/12:00pm 17.5 SW 7 12 1018.9 - 0.0 - - - - - - -
15/11:30am 17.7 WSW 4 8 1018.8 - 0.0 - - - - - - -
15/11:00am 17.3 WSW 6 12 1018.8 - 0.0 - - - - - - -
15/10:30am 17.0 WSW 5 8 1019.0 - 0.0 - - - - - - -
15/10:00am 16.8 SW 7 11 1018.8 - 0.0 - - - - - - -
15/09:30am 16.4 WSW 4 8 1018.7 - 0.0 - - - - - - -
15/09:00am 16.2 WSW 3 6 1018.6 - 0.4 - - - - - - -
15/08:30am 15.6 SW 7 10 1018.4 - 0.4 - - - - - - -
15/08:00am 15.4 SW 5 8 1018.1 - 0.4 - - - - - - -
15/07:30am 15.3 SW 4 6 1017.8 - 0.4 - - - - - - -
15/07:00am 15.3 SW 6 11 1017.5 - 0.4 - - - - - - -
15/06:30am 15.3 WSW 5 9 1017.2 - 0.4 - - - - - - -
15/06:00am 15.3 SW 4 8 1016.7 - 0.4 - - - - - - -
15/05:30am 15.2 WSW 4 9 1016.5 - 0.4 - - - - - - -
15/05:00am 15.1 WSW 4 7 1016.3 - 0.4 - - - - - - -
15/04:30am 15.3 WSW 5 8 1016.1 - 0.4 - - - - - - -
15/04:00am 15.2 WSW 5 10 1015.9 - 0.4 - - - - - - -
15/03:30am 15.3 WSW 6 11 1015.6 - 0.4 - - - - - - -
15/03:00am 15.4 SW 8 13 1015.7 - 0.4 - - - - - - -
15/02:30am 15.6 SW 8 14 1015.7 - 0.4 - - - - - - -
15/02:00am 15.7 SW 6 11 1015.8 - 0.4 - - - - - - -
15/01:30am 15.8 SW 8 13 1015.9 - 0.4 - - - - - - -
15/01:00am 15.8 WSW 6 12 1016.0 - 0.4 - - - - - - -
15/12:30am 16.0 SW 9 18 1015.8 - 0.4 - - - - - - -
15/12:00am 15.9 SW 8 15 1015.9 - 0.4 - - - - - - -
 
Date/Time
EDT
Temp
°C
Wind Pressure Rain since
9am
mm
Weather Cloud Vis
km
Sea
Height
m
Swell
Dir  Spd
kts
Gust
kts
hPa Trend Height
m
Period
s
Dir
14/11:30pm 15.8 WSW 7 13 1015.7 - 0.4 - - - - - - -
14/11:00pm 16.1 SW 10 19 1015.6 - 0.4 - - - - - - -
14/10:30pm 16.1 SW 9 16 1015.5 - 0.4 - - - - - - -
14/10:00pm 15.8 SW 8 13 1015.3 - 0.4 - - - - - - -
14/09:30pm 16.1 SW 10 16 1014.8 - 0.4 - - - - - - -
14/09:00pm 16.0 WSW 10 18 1014.5 - 0.4 - - - - - - -
14/08:30pm 15.8 WSW 11 20 1014.3 - 0.4 - - - - - - -
14/08:00pm 16.8 SW 13 20 1013.7 - 0.4 - - - - - - -
14/07:30pm 17.6 WSW 14 22 1013.2 - 0.4 - - - - - - -
14/07:00pm 17.5 WSW 11 21 1012.9 - 0.4 - - - - - - -
14/06:30pm 17.9 WSW 13 24 1012.6 - 0.4 - - - - - - -
14/06:00pm 18.4 WSW 14 23 1012.1 - 0.4 - - - - - - -
14/05:30pm 18.1 WSW 15 26 1011.9 - 0.4 - - - - - - -
14/05:00pm 19.4 WSW 16 29 1011.5 - 0.4 - - - - - - -
14/04:47pm 18.5 WSW 15 28 1011.4 - 0.4 - - - - - - -
14/04:30pm 19.0 WSW 12 27 1011.2 - 0.4 - - - - - - -
14/04:00pm 19.3 WSW 15 26 1011.0 - 0.4 - - - - - - -
14/03:32pm 19.1 WSW 15 28 1010.7 - 0.4 - - - - - - -
14/03:30pm 19.9 WSW 14 25 1010.6 - 0.4 - - - - - - -
14/03:11pm 19.3 WSW 15 25 1010.3 - 0.4 - - - - - - -
14/03:00pm 19.7 W 14 24 1010.2 - 0.4 - - - - - - -
14/02:33pm 19.1 WSW 15 25 1010.0 - 0.4 - - - - - - -
14/02:30pm 19.3 WSW 14 23 1010.0 - 0.4 - - - - - - -
14/02:09pm 19.9 W 15 25 1009.7 - 0.4 - - - - - - -
14/02:00pm 18.9 W 13 26 1009.7 - 0.4 - - - - - - -
14/01:30pm 17.3 W 11 21 1009.7 - 0.4 - - - - - - -
14/01:00pm 19.5 W 11 20 1009.2 - 0.2 - - - - - - -
14/12:30pm 17.5 WSW 10 18 1008.9 - 0.2 - - - - - - -
14/12:00pm 18.4 W 7 14 1008.3 - 0.2 Recent precip. - - - - - -
14/11:30am 17.4 W 8 16 1008.0 - 0.0 - - - - - - -
14/11:00am 17.8 W 9 16 1007.4 - 0.0 - - - - - - -
14/10:30am 18.7 WNW 9 19 1007.0 - 0.0 - - - - - - -
14/10:00am 17.2 W 9 20 1007.2 - 0.0 - - - - - - -
14/09:30am 16.9 WNW 7 17 1007.0 - 0.0 - - - - - - -
14/09:00am 16.8 WNW 7 15 1006.7 - 8.8 - - - - - - -
14/08:30am 16.6 WNW 7 13 1006.4 - 8.8 - - - - - - -
14/08:00am 17.0 WNW 8 14 1005.8 - 8.8 - - - - - - -
14/07:30am 16.3 W 9 17 1005.4 - 8.8 - - - - - - -
14/07:00am 16.1 WNW 8 17 1005.1 - 8.8 - - - - - - -
14/06:30am 15.5 WNW 6 11 1004.4 - 8.8 - - - - - - -
14/06:00am 15.7 W 8 18 1004.2 - 8.8 - - - - - - -
14/05:30am 15.8 W 8 16 1004.1 - 8.8 - - - - - - -
14/05:00am 15.8 WNW 7 13 1003.6 - 8.8 - - - - - - -
14/04:30am 16.0 W 9 15 1003.5 - 8.8 - - - - - - -
14/04:00am 16.2 WNW 9 15 1003.3 - 8.8 - - - - - - -
14/03:30am 16.6 W 7 17 1003.1 - 8.8 - - - - - - -
14/03:00am 16.7 W 9 16 1003.4 - 8.8 - - - - - - -
14/02:30am 17.0 W 10 16 1003.4 - 8.8 - - - - - - -
14/02:00am 17.0 W 9 17 1003.4 - 8.8 - - - - - - -
14/01:30am 17.0 W 10 15 1003.5 - 8.8 - - - - - - -
14/01:00am 17.0 W 7 12 1003.4 - 8.8 - - - - - - -
14/12:30am 16.9 W 6 11 1003.3 - 8.8 - - - - - - -
14/12:00am 17.3 W 7 12 1003.3 - 8.8 - - - - - - -

Other Formats:

Comma delimited format used in spreadsheet applications
http://www.bom.gov.au/fwo/IDV60701/IDV60701.94892.axf

JavaScript Object Notation format (JSON) in row-major order
http://www.bom.gov.au/fwo/IDV60701/IDV60701.94892.json